Time;durP1;ratioP1;P1;durP2;ratioP2;P2;SDS_P1;SDS_P2;PMS_P1;PMS_P2;Temp;Humidity;BMP_temperature;BMP_pressure;BME280_temperature;BME280_humidity;BME280_pressure;Samples;Min_cycle;Max_cycle;Signal;HPM_P1;HPM_P2
2022/04/21 00:00:59;;;;;;;5.70;2.30;;;;;;;7.89;78.39;100045.63;5095458;28;20016;-77
2022/04/21 00:03:24;;;;;;;3.80;2.63;;;;;;;7.83;78.68;100043.13;5094140;28;20032;-75
2022/04/21 00:05:49;;;;;;;3.83;2.58;;;;;;;7.67;79.54;100030.19;5093916;28;20028;-75
2022/04/21 00:08:16;;;;;;;3.28;2.28;;;;;;;7.43;82.17;100037.75;5094188;28;20386;-75
2022/04/21 00:10:42;;;;;;;4.15;2.40;;;;;;;7.22;83.59;100028.44;5094373;28;20031;-75
2022/04/21 00:13:08;;;;;;;3.75;2.42;;;;;;;7.09;84.69;100027.81;5093976;28;20028;-77
2022/04/21 00:15:33;;;;;;;3.85;2.50;;;;;;;7.08;84.85;100028.75;5095742;28;20452;-77
2022/04/21 00:17:59;;;;;;;4.53;2.60;;;;;;;7.03;85.19;100020.88;5095869;28;20055;-77
2022/04/21 00:20:24;;;;;;;4.03;2.63;;;;;;;7.10;84.25;100024.25;5097416;22;20044;-82
2022/04/21 00:25:33;;;;;;;;;;;;;;;7.11;85.16;100026.03;5096658;28;20035;-82
2022/04/21 00:27:59;;;;;;;5.20;2.75;;;;;;;7.11;85.60;100020.72;5097409;28;19908;-83
2022/04/21 00:30:25;;;;;;;4.55;2.45;;;;;;;7.14;86.72;100025.94;5097289;28;20031;-82
2022/04/21 00:32:50;;;;;;;4.60;2.42;;;;;;;7.20;86.28;100023.19;5096996;28;20024;-82
2022/04/21 00:35:17;;;;;;;4.60;2.70;;;;;;;7.22;86.33;100021.34;5078508;28;20408;-83
2022/04/21 00:37:44;;;;;;;4.28;2.75;;;;;;;7.22;85.86;100026.66;5096428;28;20046;-82
2022/04/21 00:40:10;;;;;;;5.15;2.42;;;;;;;7.18;85.82;100018.81;5078335;28;20027;-82
2022/04/21 00:42:35;;;;;;;5.63;2.60;;;;;;;7.16;85.24;100018.84;5078009;28;20024;-83
2022/04/21 00:45:00;;;;;;;5.85;2.50;;;;;;;7.19;85.46;100024.06;5078482;28;20085;-83
2022/04/21 00:47:26;;;;;;;4.50;2.58;;;;;;;7.13;85.20;100017.13;5078529;28;20024;-82
2022/04/21 00:49:51;;;;;;;5.65;2.65;;;;;;;7.08;85.63;100013.69;5078799;28;20016;-82
2022/04/21 00:52:17;;;;;;;5.68;2.78;;;;;;;7.01;85.89;100010.25;5076130;28;20024;-81
2022/04/21 00:54:43;;;;;;;3.78;2.25;;;;;;;6.97;86.20;100019.19;5094137;28;20028;-82
2022/04/21 00:57:09;;;;;;;4.38;2.42;;;;;;;6.94;86.92;100013.94;5076683;28;20396;-81
2022/04/21 00:59:34;;;;;;;4.70;2.10;;;;;;;6.87;87.41;100012.31;5077017;28;20028;-81
2022/04/21 01:04:46;;;;;;;4.53;2.58;;;;;;;6.38;91.48;100010.53;5096821;28;20035;-82
2022/04/21 01:07:12;;;;;;;4.78;2.47;;;;;;;6.41;91.64;100010.47;5078586;28;20020;-82
2022/04/21 01:09:38;;;;;;;5.35;2.60;;;;;;;6.39;90.54;100008.75;5078962;28;20556;-82
2022/04/21 01:12:11;;;;;;;3.70;2.47;;;;;;;6.44;91.12;100012.22;5079156;28;20031;-83
2022/04/21 01:14:37;;;;;;;4.30;2.42;;;;;;;6.36;91.72;100002.63;5097165;28;20024;-84
2022/04/21 01:17:03;;;;;;;4.78;2.88;;;;;;;6.19;91.73;100002.00;5077784;28;20439;-83
2022/04/21 01:19:29;;;;;;;4.15;2.50;;;;;;;5.80;94.51;100000.78;5078703;28;20384;-83
2022/04/21 01:21:54;;;;;;;4.18;2.80;;;;;;;5.98;95.53;100002.28;5078885;28;20512;-82
2022/04/21 01:24:19;;;;;;;3.72;2.38;;;;;;;6.04;94.78;99996.91;5096904;28;20031;-83
2022/04/21 01:26:46;;;;;;;4.57;2.63;;;;;;;6.06;95.20;99988.91;5079144;28;20093;-83
2022/04/21 01:29:12;;;;;;;4.72;2.67;;;;;;;6.17;93.36;99999.38;5093587;28;20445;-81
2022/04/21 01:31:38;;;;;;;5.25;2.60;;;;;;;6.03;94.84;99986.34;5075138;28;20469;-81
2022/04/21 01:34:03;;;;;;;4.20;2.63;;;;;;;5.81;95.44;99979.59;5097219;28;20031;-83
2022/04/21 01:36:28;;;;;;;3.83;2.50;;;;;;;5.43;98.05;99984.53;5098206;28;20024;-83
2022/04/21 01:41:37;;;;;;;6.25;3.08;;;;;;;5.39;100.00;99972.22;5099990;28;20071;-84
2022/04/21 01:44:03;;;;;;;6.38;3.33;;;;;;;5.42;98.70;99966.88;5101069;28;20388;-85
2022/04/21 01:46:29;;;;;;;4.53;2.85;;;;;;;5.44;99.84;99964.22;5083373;28;20028;-85
2022/04/21 01:48:54;;;;;;;6.43;2.70;;;;;;;5.47;100.00;99962.41;5083273;28;20084;-84
2022/04/21 01:51:20;;;;;;;5.80;2.80;;;;;;;5.56;99.85;99963.19;5081724;28;20020;-83
2022/04/21 01:53:45;;;;;;;7.95;2.75;;;;;;;5.59;99.67;99971.09;5081610;28;20027;-85
2022/04/21 01:56:10;;;;;;;5.57;2.90;;;;;;;5.65;100.00;99963.03;5099918;28;20103;-84
2022/04/21 01:58:35;;;;;;;6.32;2.90;;;;;;;5.59;100.00;99957.84;5081417;28;20028;-82
2022/04/21 02:01:01;;;;;;;6.00;2.85;;;;;;;5.59;99.97;99960.50;5081065;28;20012;-81
2022/04/21 02:03:27;;;;;;;5.22;3.20;;;;;;;5.58;100.00;99962.25;5081309;28;20480;-84
2022/04/21 02:05:53;;;;;;;6.53;2.65;;;;;;;5.46;100.00;99958.00;5096832;28;20081;-83
2022/04/21 02:08:18;;;;;;;5.82;3.33;;;;;;;5.45;100.00;99956.25;5077877;28;20020;-81
2022/04/21 02:10:43;;;;;;;4.78;3.08;;;;;;;5.43;100.00;99952.75;5077749;28;20035;-83
2022/04/21 02:13:08;;;;;;;4.97;3.40;;;;;;;5.43;100.00;99951.88;5078025;28;20032;-81
2022/04/21 02:15:34;;;;;;;4.70;3.22;;;;;;;5.48;100.00;99956.22;5078093;28;20028;-82
2022/04/21 02:18:01;;;;;;;6.70;3.58;;;;;;;5.52;100.00;99956.16;5079916;28;20031;-83
2022/04/21 02:20:26;;;;;;;7.35;3.90;;;;;;;5.53;100.00;99963.22;5099892;28;20032;-84
2022/04/21 02:22:52;;;;;;;5.53;3.60;;;;;;;5.52;100.00;99962.34;5080976;28;20473;-84
2022/04/21 02:25:17;;;;;;;7.60;3.92;;;;;;;5.46;100.00;99951.84;5097985;28;20075;-84
2022/04/21 02:27:45;;;;;;;5.88;3.60;;;;;;;5.45;100.00;99961.56;5080725;28;20035;-84
2022/04/21 02:30:12;;;;;;;7.13;3.47;;;;;;;5.41;100.00;99956.34;5098910;28;20031;-85
2022/04/21 02:32:38;;;;;;;5.35;3.60;;;;;;;5.35;100.00;99955.53;5080690;28;20111;-84
2022/04/21 02:35:04;;;;;;;5.03;3.25;;;;;;;5.39;100.00;99944.84;5099583;28;20092;-84
2022/04/21 02:37:41;;;;;;;5.28;4.00;;;;;;;5.38;100.00;99951.94;5100103;28;20031;-84
2022/04/21 02:40:09;;;;;;;6.57;3.72;;;;;;;5.01;100.00;99951.53;5080890;28;20042;-83
2022/04/21 02:42:34;;;;;;;4.65;3.38;;;;;;;4.94;100.00;99949.88;5077314;28;20031;-83
2022/04/21 02:45:00;;;;;;;9.13;4.50;;;;;;;4.76;100.00;99945.66;5094764;28;20028;-82
2022/04/21 02:47:25;;;;;;;6.10;3.78;;;;;;;4.79;100.00;99948.28;5077130;28;20047;-81
2022/04/21 02:49:53;;;;;;;6.03;3.63;;;;;;;4.79;100.00;99946.47;5076976;28;20475;-82
2022/04/21 02:52:19;;;;;;;6.65;3.47;;;;;;;4.67;100.00;99957.22;5077707;28;20089;-83
2022/04/21 02:57:30;;;;;;;5.32;3.72;;;;;;;4.32;100.00;99952.28;5099206;28;20081;-84
2022/04/21 02:59:58;;;;;;;5.72;3.85;;;;;;;4.44;100.00;99953.91;5080215;28;20027;-84
2022/04/21 03:02:24;;;;;;;9.00;4.35;;;;;;;4.52;100.00;99948.56;5080080;28;20016;-84
2022/04/21 03:04:51;;;;;;;7.35;4.10;;;;;;;4.51;100.00;99959.16;5099166;28;20389;-84
2022/04/21 03:07:17;;;;;;;7.93;3.80;;;;;;;4.50;100.00;99955.63;5080504;28;20073;-84
2022/04/21 03:09:43;;;;;;;5.95;3.55;;;;;;;4.56;100.00;99954.69;5079973;28;20484;-84
2022/04/21 03:12:09;;;;;;;5.53;3.55;;;;;;;4.58;100.00;99948.50;5080341;28;20038;-85
2022/04/21 03:14:36;;;;;;;5.38;3.67;;;;;;;4.56;100.00;99950.25;5080302;28;20024;-83
2022/04/21 03:17:02;;;;;;;4.40;3.50;;;;;;;4.59;100.00;99944.06;5098560;28;20032;-83
2022/04/21 03:19:27;;;;;;;8.10;3.70;;;;;;;4.57;100.00;99946.75;5094814;28;20046;-82
2022/04/21 03:24:37;;;;;;;;;;;;;;;4.36;100.00;99943.41;5095402;28;20065;-82
2022/04/21 03:27:03;;;;;;;7.15;4.00;;;;;;;4.35;100.00;99946.09;5077686;28;19908;-82
2022/04/21 03:29:28;;;;;;;11.10;4.00;;;;;;;4.13;100.00;99943.63;5076868;28;20024;-84
2022/04/21 03:31:54;;;;;;;8.65;4.60;;;;;;;3.97;100.00;99956.13;5078666;28;20035;-82
2022/04/21 03:34:20;;;;;;;8.55;4.13;;;;;;;4.02;100.00;99944.59;5097076;28;20016;-84
2022/04/21 03:36:50;;;;;;;6.40;4.25;;;;;;;4.02;100.00;99949.88;5096691;28;20032;-84
2022/04/21 03:39:17;;;;;;;6.18;4.40;;;;;;;4.01;100.00;99947.28;5079523;28;20469;-84
2022/04/21 03:41:43;;;;;;;7.55;4.70;;;;;;;4.13;100.00;99949.81;5078547;28;20066;-84
2022/04/21 03:44:12;;;;;;;8.35;4.18;;;;;;;4.22;100.00;99947.97;5096765;28;20023;-84
2022/04/21 03:46:38;;;;;;;8.05;4.70;;;;;;;4.26;100.00;99949.69;5080886;28;20032;-84
2022/04/21 03:49:05;;;;;;;6.50;4.50;;;;;;;4.32;100.00;99944.34;5094269;28;20027;-85
2022/04/21 03:51:31;;;;;;;6.07;4.30;;;;;;;4.29;100.00;99941.72;5076172;28;20369;-85
2022/04/21 03:53:57;;;;;;;7.57;3.88;;;;;;;4.32;100.00;99944.34;5096628;28;20036;-83
2022/04/21 03:56:22;;;;;;;7.15;4.63;;;;;;;4.28;100.00;99954.97;5075715;28;20024;-85
2022/04/21 03:58:48;;;;;;;7.40;4.18;;;;;;;4.28;100.00;99945.25;5076338;28;20016;-83
2022/04/21 04:01:14;;;;;;;5.53;4.07;;;;;;;4.28;100.00;99949.69;5076253;28;20020;-83
2022/04/21 04:03:39;;;;;;;6.45;4.05;;;;;;;4.25;100.00;99950.59;5076277;28;20081;-86
2022/04/21 04:10:51;;;;;;;7.82;4.55;;;;;;;4.18;100.00;99943.59;5076348;28;20027;-84
2022/04/21 04:11:37;;;;;;;7.35;4.68;;;;;;;4.21;100.00;99951.50;5082659;28;20040;-85
2022/04/21 04:14:03;;;;;;;6.13;4.07;;;;;;;4.24;100.00;99943.53;5076188;28;20035;-85
2022/04/21 04:16:28;;;;;;;6.95;4.65;;;;;;;4.22;100.00;99946.22;5094323;28;20099;-84
2022/04/21 04:18:54;;;;;;;6.80;4.80;;;;;;;4.26;100.00;99936.47;5093865;28;20038;-85
2022/04/21 04:21:19;;;;;;;6.78;4.60;;;;;;;4.15;100.00;99938.34;5094410;28;20043;-85
2022/04/21 04:23:44;;;;;;;6.72;4.63;;;;;;;4.15;100.00;99948.91;5075876;28;20404;-84
2022/04/21 04:26:10;;;;;;;7.95;4.57;;;;;;;4.08;100.00;99938.41;5075834;28;20031;-84
2022/04/21 04:28:36;;;;;;;8.80;4.63;;;;;;;4.10;100.00;99943.66;5094157;28;20024;-85
2022/04/21 04:31:01;;;;;;;9.18;4.88;;;;;;;4.09;100.00;99940.16;5094496;28;20032;-84
2022/04/21 04:33:27;;;;;;;8.32;5.10;;;;;;;4.13;100.00;99928.66;5094067;28;20472;-84
2022/04/21 04:35:52;;;;;;;6.35;4.72;;;;;;;4.14;100.00;99934.81;5076012;28;20028;-83
2022/04/21 04:38:17;;;;;;;10.73;5.55;;;;;;;4.05;100.00;99930.50;5075685;28;20480;-84
2022/04/21 04:40:42;;;;;;;7.75;4.68;;;;;;;4.09;100.00;99929.59;5076317;28;20023;-84
2022/04/21 04:43:08;;;;;;;7.57;4.38;;;;;;;4.08;100.00;99927.81;5094596;28;20115;-83
2022/04/21 04:48:17;;;;;;;7.90;5.25;;;;;;;4.09;100.00;99942.81;5094722;28;20404;-82
2022/04/21 04:50:42;;;;;;;7.68;5.22;;;;;;;4.07;100.00;99936.63;5076189;28;20028;-84
2022/04/21 04:53:08;;;;;;;7.63;4.72;;;;;;;4.11;100.00;99941.03;5094885;28;20020;-84
2022/04/21 04:55:33;;;;;;;10.70;5.20;;;;;;;4.17;100.00;99941.84;5076971;28;20115;-83
2022/04/21 04:57:58;;;;;;;7.60;4.72;;;;;;;4.21;100.00;99943.56;5076237;28;20031;-84
2022/04/21 05:00:24;;;;;;;7.95;4.97;;;;;;;4.22;100.00;99934.75;5076624;28;20138;-84
2022/04/21 05:02:50;;;;;;;8.05;4.65;;;;;;;4.16;100.00;99943.63;5076591;28;20024;-84
2022/04/21 05:05:15;;;;;;;8.13;5.10;;;;;;;4.13;100.00;99939.22;5094680;28;20019;-84
2022/04/21 05:07:40;;;;;;;9.98;6.15;;;;;;;4.17;100.00;99948.03;5095639;28;20020;-84
2022/04/21 05:10:08;;;;;;;9.95;5.20;;;;;;;4.20;100.00;99947.97;5080914;28;20061;-83
2022/04/21 05:12:33;;;;;;;8.38;6.20;;;;;;;4.27;100.00;99938.22;5081132;28;20030;-83
2022/04/21 05:14:58;;;;;;;7.40;5.05;;;;;;;4.29;100.00;99941.72;5098789;28;20103;-85
2022/04/21 05:17:24;;;;;;;10.73;6.70;;;;;;;4.36;100.00;99947.81;5083394;28;20484;-85
2022/04/21 05:19:52;;;;;;;9.43;6.32;;;;;;;4.41;100.00;99948.66;5082591;28;20028;-86
2022/04/21 05:22:18;;;;;;;10.77;6.82;;;;;;;4.51;100.00;99956.53;5097844;28;20027;-85
2022/04/21 05:24:48;;;;;;;11.02;7.15;;;;;;;4.51;100.00;99952.09;5079639;28;20036;-83
2022/04/21 05:27:13;;;;;;;12.30;6.60;;;;;;;4.51;100.00;99949.44;5080001;28;20030;-83
2022/04/21 05:32:26;;;;;;;10.77;7.15;;;;;;;4.62;100.00;99959.03;5098470;28;20035;-86
2022/04/21 05:34:52;;;;;;;11.77;8.02;;;;;;;4.67;100.00;99949.28;5079227;28;20031;-86
2022/04/21 05:37:17;;;;;;;10.65;7.47;;;;;;;4.72;100.00;99944.81;5097531;28;20392;-86
2022/04/21 05:39:43;;;;;;;17.50;8.27;;;;;;;4.69;100.00;99950.16;5097335;28;20031;-86
2022/04/21 05:42:25;;;;;;;14.27;8.40;;;;;;;4.75;100.00;99950.06;5097617;28;20020;-85
2022/04/21 05:44:52;;;;;;;11.20;8.20;;;;;;;4.63;100.00;99950.22;5079244;28;20023;-85
2022/04/21 05:47:18;;;;;;;13.43;8.88;;;;;;;4.58;100.00;99945.84;5079000;28;20032;-86
2022/04/21 05:49:43;;;;;;;14.32;8.98;;;;;;;4.60;100.00;99947.59;5096972;28;20431;-86
2022/04/21 05:52:12;;;;;;;15.90;9.27;;;;;;;4.60;100.00;99945.84;5097105;28;20024;-86
2022/04/21 05:54:38;;;;;;;14.02;8.25;;;;;;;4.63;100.00;99944.94;5097049;28;20039;-86
2022/04/21 05:57:04;;;;;;;13.88;8.93;;;;;;;4.63;100.00;99951.09;5097134;28;20437;-86
2022/04/21 05:59:29;;;;;;;12.77;8.82;;;;;;;4.69;100.00;99944.88;5097160;28;20028;-86
2022/04/21 06:01:54;;;;;;;16.52;9.05;;;;;;;4.66;100.00;99951.06;5097004;28;20034;-87
2022/04/21 06:04:22;;;;;;;13.02;8.77;;;;;;;4.66;100.00;99959.00;5078700;28;20123;-87
2022/04/21 06:06:48;;;;;;;15.48;8.98;;;;;;;4.73;100.00;99957.16;5096907;28;20072;-87
2022/04/21 06:09:13;;;;;;;13.70;8.80;;;;;;;4.72;100.00;99960.69;5096745;28;20099;-85
2022/04/21 06:11:38;;;;;;;13.18;8.15;;;;;;;4.76;100.00;99956.25;5096716;28;20024;-86
2022/04/21 06:14:03;;;;;;;12.45;8.20;;;;;;;4.77;100.00;99953.56;5096465;28;20469;-86
2022/04/21 06:16:29;;;;;;;13.05;8.38;;;;;;;4.77;100.00;99956.22;5096604;28;20115;-86
2022/04/21 06:18:54;;;;;;;12.65;8.13;;;;;;;4.80;100.00;99957.94;5117904;22;20992;-83
2022/04/21 06:21:19;;;;;;;14.68;8.35;;;;;;;4.93;100.00;99953.38;5095631;28;20056;-83
2022/04/21 06:23:45;;;;;;;11.70;7.63;;;;;;;4.99;100.00;99955.97;5096235;28;20443;-83
2022/04/21 06:26:10;;;;;;;12.55;8.32;;;;;;;5.11;100.00;99962.00;5096092;28;20031;-84
2022/04/21 06:28:36;;;;;;;11.00;6.95;;;;;;;5.13;100.00;99953.13;5095907;28;20016;-83
2022/04/21 06:31:01;;;;;;;13.48;7.50;;;;;;;5.13;100.00;99952.25;5096189;28;20024;-83
2022/04/21 06:33:31;;;;;;;11.10;6.82;;;;;;;5.16;100.00;99952.22;5096176;28;20024;-82
2022/04/21 06:35:58;;;;;;;11.20;7.10;;;;;;;5.13;100.00;99946.97;5096047;28;20032;-83
2022/04/21 06:38:24;;;;;;;9.93;6.53;;;;;;;5.17;100.00;99956.63;5077813;28;20020;-83
2022/04/21 06:40:49;;;;;;;13.57;6.97;;;;;;;5.27;100.00;99948.56;5078140;28;20020;-89
2022/04/21 06:48:45;;;;;;;10.52;7.05;;;;;;;5.27;100.00;99951.22;5095076;28;20123;-85
2022/04/21 06:51:13;;;;;;;10.48;6.25;;;;;;;5.31;100.00;99950.28;5076769;28;20107;-86
2022/04/21 06:53:39;;;;;;;12.80;6.28;;;;;;;5.38;100.00;99951.94;5094924;28;20400;-86
2022/04/21 06:56:05;;;;;;;10.95;6.35;;;;;;;5.45;100.00;99953.63;5095440;28;20099;-85
2022/04/21 06:58:30;;;;;;;10.88;6.70;;;;;;;5.63;100.00;99956.88;5076791;28;20054;-85
2022/04/21 07:00:55;;;;;;;9.25;6.57;;;;;;;5.78;100.00;99957.53;5095299;28;20060;-87
2022/04/21 07:03:21;;;;;;;9.82;6.18;;;;;;;5.90;100.00;99952.03;5095901;28;20034;-86
2022/04/21 07:05:46;;;;;;;10.75;6.10;;;;;;;5.93;100.00;99962.59;5095300;28;20039;-86
2022/04/21 07:08:12;;;;;;;9.50;6.15;;;;;;;6.00;99.79;99957.22;5094998;28;20432;-86
2022/04/21 07:10:37;;;;;;;10.45;6.50;;;;;;;5.98;99.08;99959.88;5076341;28;20023;-86
2022/04/21 07:13:12;;;;;;;10.30;6.18;;;;;;;5.96;97.52;99958.16;5094953;28;20463;-86
2022/04/21 07:15:40;;;;;;;9.18;5.78;;;;;;;6.10;98.83;99961.50;5076776;28;20024;-86
2022/04/21 07:18:05;;;;;;;9.40;5.70;;;;;;;6.21;98.88;99955.16;5095093;28;20110;-86
2022/04/21 07:20:31;;;;;;;8.85;6.13;;;;;;;6.19;96.65;99968.41;5094533;28;20059;-86
2022/04/21 07:22:56;;;;;;;10.65;6.53;;;;;;;6.27;96.41;99965.63;5094932;28;20425;-86
2022/04/21 07:25:21;;;;;;;8.02;5.82;;;;;;;6.34;97.99;99961.97;5096319;28;20024;-88
2022/04/21 07:27:47;;;;;;;10.13;5.85;;;;;;;6.45;96.87;99963.53;5095347;28;20020;-89
2022/04/21 07:30:13;;;;;;;10.25;5.95;;;;;;;6.54;96.75;99963.41;5094731;28;20095;-90
2022/04/21 07:32:38;;;;;;;10.80;6.32;;;;;;;6.50;95.70;99960.81;5094816;28;20103;-87
2022/04/21 07:35:04;;;;;;;10.55;5.50;;;;;;;6.34;95.27;99956.66;5094837;28;20036;-84
2022/04/21 07:37:30;;;;;;;9.38;5.55;;;;;;;6.55;97.63;99964.25;5094772;28;20393;-84
2022/04/21 07:39:55;;;;;;;10.60;5.07;;;;;;;6.47;95.29;99964.38;5094274;28;20473;-84
2022/04/21 07:42:22;;;;;;;10.20;5.65;;;;;;;6.45;95.95;99955.59;5094329;28;20026;-84
2022/04/21 07:44:47;;;;;;;8.30;6.18;;;;;;;6.36;95.18;99962.84;5076262;28;20111;-84
2022/04/21 07:47:13;;;;;;;8.25;5.55;;;;;;;6.50;96.03;99960.81;5094476;28;20111;-84
2022/04/21 07:49:48;;;;;;;8.60;5.07;;;;;;;6.46;94.49;99960.00;5094273;28;20396;-84
2022/04/21 07:55:14;;;;;;;7.93;5.05;;;;;;;6.40;95.08;99960.09;5094968;28;20089;-83
2022/04/21 07:57:40;;;;;;;8.90;5.50;;;;;;;6.44;96.52;99957.34;5094380;28;20028;-84
2022/04/21 08:00:07;;;;;;;8.57;5.00;;;;;;;6.22;96.43;99962.19;5075642;28;20035;-83
2022/04/21 08:02:32;;;;;;;10.48;6.32;;;;;;;6.26;96.76;99956.78;5093547;28;20022;-85
2022/04/21 08:04:58;;;;;;;8.32;5.70;;;;;;;6.41;97.96;99956.56;5094024;28;20020;-85
2022/04/21 08:07:23;;;;;;;9.98;5.82;;;;;;;6.46;96.47;99960.00;5094022;28;20016;-84
2022/04/21 08:09:49;;;;;;;9.02;5.10;;;;;;;6.50;95.17;99956.38;5093412;28;20027;-84
2022/04/21 08:12:14;;;;;;;9.45;5.00;;;;;;;6.46;95.70;99957.34;5075348;28;20035;-84
2022/04/21 08:14:39;;;;;;;9.95;5.05;;;;;;;6.38;96.08;99941.56;5093775;28;20019;-84
2022/04/21 08:17:05;;;;;;;9.30;5.00;;;;;;;6.32;97.35;99953.16;5093944;28;20436;-84
2022/04/21 08:19:31;;;;;;;7.93;5.15;;;;;;;6.37;97.33;99953.06;5093757;28;20056;-84
2022/04/21 08:21:56;;;;;;;8.50;5.32;;;;;;;6.45;95.78;99958.25;5094496;28;20029;-84
2022/04/21 08:32:33;;;;;;;7.63;4.82;;;;;;;6.81;95.58;99955.78;5094736;28;20172;-84
2022/04/21 08:35:03;;;;;;;8.85;5.82;;;;;;;6.95;95.03;99952.00;5094187;28;20031;-84
2022/04/21 08:37:28;;;;;;;9.85;5.75;;;;;;;7.17;96.06;99948.88;5094045;28;20032;-85
2022/04/21 08:39:55;;;;;;;10.07;5.50;;;;;;;7.12;94.67;99948.97;5093604;28;20069;-84
2022/04/21 08:42:21;;;;;;;10.18;5.30;;;;;;;7.34;93.39;99951.19;5074596;28;20020;-84
2022/04/21 08:44:49;;;;;;;10.98;5.03;;;;;;;7.28;93.70;99942.47;5075422;28;20019;-84
2022/04/21 08:47:18;;;;;;;8.63;5.22;;;;;;;7.34;93.89;99937.91;5074958;28;20028;-85
2022/04/21 08:49:47;;;;;;;9.52;5.78;;;;;;;7.38;95.50;99939.56;5093038;28;20081;-84
2022/04/21 08:52:14;;;;;;;10.02;5.63;;;;;;;7.41;92.89;99943.94;5093279;28;20108;-85
2022/04/21 08:54:41;;;;;;;10.18;6.18;;;;;;;7.35;95.52;99952.03;5093347;28;20077;-84
2022/04/21 08:57:08;;;;;;;15.82;6.07;;;;;;;7.45;94.07;99945.63;5093110;28;20115;-84
2022/04/21 08:59:33;;;;;;;10.85;5.90;;;;;;;7.60;94.30;99935.56;5093141;28;20066;-85
2022/04/21 09:01:59;;;;;;;8.60;5.82;;;;;;;7.59;92.05;99947.97;5075277;28;20029;-84
2022/04/21 09:04:24;;;;;;;10.77;5.65;;;;;;;7.48;92.34;99937.59;5093420;28;20031;-85
2022/04/21 09:06:50;;;;;;;10.00;5.53;;;;;;;7.54;93.49;99944.53;5093494;28;20024;-84
2022/04/21 09:09:21;;;;;;;10.57;5.63;;;;;;;7.64;96.32;99945.19;5093407;28;20032;-85
2022/04/21 09:11:51;;;;;;;10.68;5.60;;;;;;;7.62;92.83;99949.69;5093773;28;20118;-84
2022/04/21 09:14:17;;;;;;;10.65;5.70;;;;;;;7.66;92.18;99942.50;5093600;28;20028;-84
2022/04/21 09:16:43;;;;;;;8.25;5.00;;;;;;;7.70;91.35;99949.50;5094416;28;20107;-84
2022/04/21 09:19:08;;;;;;;8.02;5.63;;;;;;;7.76;91.25;99948.47;5075707;28;20098;-83
2022/04/21 09:21:38;;;;;;;11.07;5.70;;;;;;;7.67;92.41;99952.22;5093397;28;20035;-84
2022/04/21 09:24:50;;;;;;;10.38;5.22;;;;;;;7.67;93.07;99945.13;5075433;28;20392;-85
2022/04/21 09:27:15;;;;;;;10.75;5.43;;;;;;;7.85;92.39;99936.75;5076743;28;20329;-87
2022/04/21 09:29:41;;;;;;;7.97;5.43;;;;;;;7.99;91.22;99939.09;5094954;28;20511;-86
2022/04/21 09:32:06;;;;;;;8.82;5.30;;;;;;;8.19;91.39;99937.69;5093540;28;20115;-85
2022/04/21 09:34:34;;;;;;;10.95;5.57;;;;;;;8.52;92.83;99948.34;5094220;28;20032;-86
2022/04/21 09:37:00;;;;;;;10.80;6.22;;;;;;;8.69;92.34;99939.06;5093928;28;20020;-86
2022/04/21 09:39:27;;;;;;;9.38;5.38;;;;;;;8.80;89.51;99944.09;5094434;28;20068;-86
2022/04/21 09:41:54;;;;;;;8.30;5.47;;;;;;;9.00;91.08;99943.50;5094038;28;20020;-86
2022/04/21 09:47:05;;;;;;;10.30;5.95;;;;;;;9.68;90.06;99945.03;5092813;28;20077;-85
2022/04/21 09:49:41;;;;;;;13.43;4.88;;;;;;;9.99;87.86;99944.97;5092295;28;20043;-85
2022/04/21 09:52:06;;;;;;;7.68;5.50;;;;;;;9.82;81.54;99949.03;5092108;28;20397;-84
2022/04/21 09:54:33;;;;;;;9.65;5.18;;;;;;;10.02;84.58;99952.88;5076249;28;20019;-84
2022/04/21 09:57:00;;;;;;;9.77;5.28;;;;;;;9.97;83.33;99952.16;5096362;28;20020;-84
2022/04/21 09:59:25;;;;;;;11.13;5.50;;;;;;;10.91;86.79;99943.59;5096160;28;20024;-84
2022/04/21 10:01:51;;;;;;;9.65;5.18;;;;;;;10.68;80.54;99942.66;5096076;28;20133;-85
2022/04/21 10:04:20;;;;;;;7.18;4.70;;;;;;;10.41;80.68;99943.53;5098188;28;20391;-81
2022/04/21 10:06:46;;;;;;;9.75;5.07;;;;;;;10.82;80.33;99948.34;5079217;28;20043;-84
2022/04/21 10:09:13;;;;;;;8.80;5.30;;;;;;;10.45;80.88;99938.97;5097440;28;20453;-84
2022/04/21 10:11:42;;;;;;;8.13;4.88;;;;;;;10.70;77.28;99946.13;5097995;28;20024;-84
2022/04/21 10:14:12;;;;;;;8.60;4.65;;;;;;;10.94;79.59;99946.16;5079842;28;20093;-83
2022/04/21 10:16:42;;;;;;;9.82;4.70;;;;;;;10.47;78.97;99942.44;5098342;28;20031;-84
2022/04/21 10:19:09;;;;;;;9.35;5.25;;;;;;;11.04;77.88;99952.03;5082138;28;20056;-84
2022/04/21 10:21:39;;;;;;;10.02;5.25;;;;;;;11.35;74.89;99945.53;5080675;28;20019;-84
2022/04/21 10:24:06;;;;;;;7.20;4.68;;;;;;;11.88;77.34;99937.19;5097192;28;20106;-83
2022/04/21 10:26:43;;;;;;;7.78;5.28;;;;;;;11.79;73.35;99942.94;5097356;28;20016;-84
2022/04/21 10:29:23;;;;;;;8.90;5.25;;;;;;;12.06;74.20;99934.72;5079115;28;20024;-83
2022/04/21 10:32:03;;;;;;;8.45;4.97;;;;;;;11.83;71.74;99944.53;5097859;28;20021;-83
2022/04/21 10:34:37;;;;;;;9.23;4.85;;;;;;;12.25;74.09;99928.59;5099334;28;20373;-84
2022/04/21 10:37:10;;;;;;;9.40;4.78;;;;;;;12.13;71.43;99935.31;5079968;28;20052;-84
2022/04/21 10:39:36;;;;;;;11.30;5.25;;;;;;;12.24;71.98;99929.53;5097758;28;20078;-84
2022/04/21 10:42:21;;;;;;;9.23;5.07;;;;;;;12.45;74.50;99925.06;5097680;28;20044;-84
2022/04/21 10:44:51;;;;;;;8.07;4.85;;;;;;;12.66;71.93;99914.31;5079605;28;20137;-84
2022/04/21 10:47:43;;;;;;;8.70;5.00;;;;;;;12.76;70.85;99922.81;5079447;28;20074;-83
2022/04/21 10:50:20;;;;;;;7.57;5.07;;;;;;;12.86;71.56;99912.53;5094126;28;20101;-84
2022/04/21 10:58:34;;;;;;;11.57;5.47;;;;;;;12.52;72.46;99917.63;5097847;28;20189;-83
2022/04/21 11:01:07;;;;;;;10.63;5.45;;;;;;;12.49;72.54;99918.63;5078256;28;20093;-82
2022/04/21 11:03:33;;;;;;;10.48;5.20;;;;;;;11.79;73.94;99922.41;5097282;28;20023;-84
2022/04/21 11:06:36;;;;;;;7.97;5.15;;;;;;;12.26;74.14;99909.81;5078518;28;20020;-84
2022/04/21 11:09:02;;;;;;;9.23;4.93;;;;;;;12.93;72.19;99910.47;5097613;28;20073;-84
2022/04/21 11:11:44;;;;;;;9.10;5.38;;;;;;;13.02;72.61;99904.66;5097159;28;20039;-84
2022/04/21 11:14:09;;;;;;;7.85;5.30;;;;;;;12.84;72.18;99899.22;5098222;28;20024;-83
2022/04/21 11:16:48;;;;;;;7.30;4.70;;;;;;;12.82;69.55;99906.47;5095793;28;20024;-84
2022/04/21 11:19:29;;;;;;;11.95;5.65;;;;;;;12.52;70.22;99909.59;5095277;28;20115;-84
2022/04/21 11:22:05;;;;;;;10.63;5.75;;;;;;;13.15;69.01;99910.31;5078148;28;20020;-84
2022/04/21 11:24:55;;;;;;;7.93;5.60;;;;;;;13.36;71.42;99902.22;5095484;28;20019;-85
2022/04/21 11:27:21;;;;;;;9.20;5.38;;;;;;;13.76;68.83;99901.22;5077606;28;20062;-83
2022/04/21 11:29:47;;;;;;;7.25;4.90;;;;;;;13.72;65.57;99903.19;5095595;28;20031;-84
2022/04/21 11:32:17;;;;;;;8.25;5.30;;;;;;;13.30;66.88;99894.44;5077700;28;20024;-86
2022/04/21 11:34:57;;;;;;;8.38;5.22;;;;;;;13.51;65.75;99903.28;5079338;28;20108;-85
2022/04/21 11:37:42;;;;;;;11.70;5.32;;;;;;;13.83;65.68;99893.75;5077447;28;20031;-84
2022/04/21 11:40:40;;;;;;;8.32;5.13;;;;;;;13.96;67.74;99894.00;5079331;28;20365;-85
2022/04/21 11:43:17;;;;;;;9.38;5.28;;;;;;;14.05;65.29;99896.22;5070556;28;20035;-85
2022/04/21 11:45:54;;;;;;;7.95;5.30;;;;;;;14.69;65.50;99896.56;5077133;28;20027;-85
2022/04/21 11:48:20;;;;;;;7.82;4.57;;;;;;;14.85;61.78;99892.06;5077189;28;20118;-85
2022/04/21 11:50:47;;;;;;;9.30;5.40;;;;;;;14.78;62.15;99896.06;5096591;28;20024;-84
2022/04/21 11:53:20;;;;;;;10.02;5.15;;;;;;;14.69;61.54;99900.09;5096063;28;20497;-84
2022/04/21 11:55:50;;;;;;;9.82;5.05;;;;;;;14.40;61.27;99894.47;5079510;28;20046;-85
2022/04/21 11:58:32;;;;;;;8.55;5.00;;;;;;;14.67;62.49;99885.00;5096399;28;20028;-84
2022/04/21 12:06:39;;;;;;;7.93;4.85;;;;;;;15.09;60.93;99890.84;5095778;28;20441;-85
2022/04/21 12:09:06;;;;;;;9.35;4.97;;;;;;;15.15;59.78;99889.66;5076872;28;20016;-84
2022/04/21 12:11:35;;;;;;;13.63;5.13;;;;;;;14.82;60.29;99894.03;5077013;28;20107;-85
2022/04/21 12:14:00;;;;;;;10.02;4.95;;;;;;;15.34;61.45;99893.97;5076132;28;20430;-84
2022/04/21 12:16:43;;;;;;;8.18;5.35;;;;;;;15.21;61.44;99889.28;5075857;28;20027;-84
2022/04/21 12:21:36;;;;;;;7.18;4.75;;;;;;;15.10;60.74;99883.66;5052311;28;20060;-75
2022/04/21 12:24:17;;;;;;;10.05;5.43;;;;;;;15.07;61.47;99877.50;5053730;28;20033;-75
2022/04/21 12:26:53;;;;;;;8.27;5.65;;;;;;;14.81;61.90;99885.16;5053251;28;20385;-75
2022/04/21 12:29:20;;;;;;;10.05;5.57;;;;;;;14.32;62.64;99875.19;5053567;28;20025;-75
2022/04/21 12:31:57;;;;;;;7.60;4.95;;;;;;;14.28;62.96;99886.09;5053174;28;20066;-75